sensor_id;sensor_type;location;lat;lon;timestamp;pressure;altitude;pressure_sealevel;temperature;humidity
78064;BME280;67429;51.596;-3.264;2023-07-28T00:01:05;98477.59;;;16.67;59.51
78064;BME280;67429;51.596;-3.264;2023-07-28T00:03:31;98476.76;;;17.44;58.63
78064;BME280;67429;51.596;-3.264;2023-07-28T00:05:56;98476.30;;;17.46;57.94
78064;BME280;67429;51.596;-3.264;2023-07-28T00:08:21;98474.53;;;17.49;58.41
78064;BME280;67429;51.596;-3.264;2023-07-28T00:10:46;98474.86;;;17.80;56.92
78064;BME280;67429;51.596;-3.264;2023-07-28T00:13:12;98476.40;;;17.40;58.21
78064;BME280;67429;51.596;-3.264;2023-07-28T00:15:38;98475.46;;;17.18;58.13
78064;BME280;67429;51.596;-3.264;2023-07-28T00:18:03;98476.84;;;17.56;57.93
78064;BME280;67429;51.596;-3.264;2023-07-28T00:20:28;98475.14;;;17.46;58.06
78064;BME280;67429;51.596;-3.264;2023-07-28T00:22:55;98476.89;;;17.16;58.28
78064;BME280;67429;51.596;-3.264;2023-07-28T00:25:19;98475.82;;;17.62;57.20
78064;BME280;67429;51.596;-3.264;2023-07-28T00:27:44;98475.79;;;17.34;57.57
78064;BME280;67429;51.596;-3.264;2023-07-28T00:30:11;98477.83;;;17.27;57.99
78064;BME280;67429;51.596;-3.264;2023-07-28T00:32:36;98474.36;;;17.26;58.26
78064;BME280;67429;51.596;-3.264;2023-07-28T00:35:01;98476.26;;;17.42;58.10
78064;BME280;67429;51.596;-3.264;2023-07-28T00:37:27;98475.83;;;18.20;56.59
78064;BME280;67429;51.596;-3.264;2023-07-28T00:39:51;98478.53;;;18.44;55.83
78064;BME280;67429;51.596;-3.264;2023-07-28T00:42:17;98482.64;;;16.92;58.37
78064;BME280;67429;51.596;-3.264;2023-07-28T00:44:42;98481.51;;;17.61;57.96
78064;BME280;67429;51.596;-3.264;2023-07-28T00:47:08;98478.65;;;17.25;58.72
78064;BME280;67429;51.596;-3.264;2023-07-28T00:49:34;98479.72;;;17.64;58.08
78064;BME280;67429;51.596;-3.264;2023-07-28T00:51:59;98476.88;;;18.09;56.69
78064;BME280;67429;51.596;-3.264;2023-07-28T00:54:24;98479.27;;;18.65;55.49
78064;BME280;67429;51.596;-3.264;2023-07-28T00:56:49;98478.04;;;18.33;55.42
78064;BME280;67429;51.596;-3.264;2023-07-28T00:59:15;98473.70;;;17.64;57.45
78064;BME280;67429;51.596;-3.264;2023-07-28T01:01:41;98468.68;;;17.42;58.42
78064;BME280;67429;51.596;-3.264;2023-07-28T01:04:06;98466.76;;;16.97;58.94
78064;BME280;67429;51.596;-3.264;2023-07-28T01:06:46;98460.50;;;16.92;59.67
78064;BME280;67429;51.596;-3.264;2023-07-28T01:09:01;98460.98;;;17.21;58.87
78064;BME280;67429;51.596;-3.264;2023-07-28T01:11:22;98459.31;;;17.17;58.71
78064;BME280;67429;51.596;-3.264;2023-07-28T01:13:48;98451.79;;;17.00;59.38
78064;BME280;67429;51.596;-3.264;2023-07-28T01:16:14;98449.80;;;16.65;59.25
78064;BME280;67429;51.596;-3.264;2023-07-28T01:18:39;98451.60;;;16.58;60.85
78064;BME280;67429;51.596;-3.264;2023-07-28T01:21:08;98450.18;;;16.90;59.63
78064;BME280;67429;51.596;-3.264;2023-07-28T01:23:39;98450.62;;;16.17;61.64
78064;BME280;67429;51.596;-3.264;2023-07-28T01:26:02;98447.72;;;16.79;60.44
78064;BME280;67429;51.596;-3.264;2023-07-28T01:28:22;98450.58;;;16.52;61.22
78064;BME280;67429;51.596;-3.264;2023-07-28T01:30:47;98448.68;;;16.10;62.19
78064;BME280;67429;51.596;-3.264;2023-07-28T01:33:12;98446.58;;;15.75;62.75
78064;BME280;67429;51.596;-3.264;2023-07-28T01:35:37;98447.28;;;16.28;62.81
78064;BME280;67429;51.596;-3.264;2023-07-28T01:38:03;98446.67;;;15.98;63.03
78064;BME280;67429;51.596;-3.264;2023-07-28T01:40:28;98445.79;;;16.12;62.30
78064;BME280;67429;51.596;-3.264;2023-07-28T01:42:54;98448.81;;;16.28;61.72
78064;BME280;67429;51.596;-3.264;2023-07-28T01:45:20;98450.63;;;15.77;63.04
78064;BME280;67429;51.596;-3.264;2023-07-28T01:47:45;98454.90;;;15.49;64.82
78064;BME280;67429;51.596;-3.264;2023-07-28T01:50:10;98458.11;;;15.10;65.97
78064;BME280;67429;51.596;-3.264;2023-07-28T01:52:36;98458.66;;;15.45;64.98
78064;BME280;67429;51.596;-3.264;2023-07-28T01:55:01;98460.18;;;15.62;65.14
78064;BME280;67429;51.596;-3.264;2023-07-28T01:57:27;98466.02;;;15.23;66.12
78064;BME280;67429;51.596;-3.264;2023-07-28T01:59:52;98467.18;;;14.68;66.68
78064;BME280;67429;51.596;-3.264;2023-07-28T02:02:18;98465.24;;;15.37;65.27
78064;BME280;67429;51.596;-3.264;2023-07-28T02:04:43;98468.78;;;14.87;67.22
78064;BME280;67429;51.596;-3.264;2023-07-28T02:07:09;98466.64;;;14.92;67.32
78064;BME280;67429;51.596;-3.264;2023-07-28T02:09:34;98470.02;;;14.90;66.43
78064;BME280;67429;51.596;-3.264;2023-07-28T02:12:00;98468.08;;;14.81;66.01
78064;BME280;67429;51.596;-3.264;2023-07-28T02:14:25;98462.96;;;14.47;67.95
78064;BME280;67429;51.596;-3.264;2023-07-28T02:16:51;98460.21;;;14.72;67.40
78064;BME280;67429;51.596;-3.264;2023-07-28T02:19:17;98459.83;;;14.99;66.49
78064;BME280;67429;51.596;-3.264;2023-07-28T02:21:42;98459.07;;;15.54;64.85
78064;BME280;67429;51.596;-3.264;2023-07-28T02:24:07;98455.33;;;15.02;64.69
78064;BME280;67429;51.596;-3.264;2023-07-28T02:26:33;98457.69;;;15.24;64.75
78064;BME280;67429;51.596;-3.264;2023-07-28T02:28:58;98457.67;;;15.53;63.57
78064;BME280;67429;51.596;-3.264;2023-07-28T02:31:24;98457.21;;;16.30;62.03
78064;BME280;67429;51.596;-3.264;2023-07-28T02:33:49;98457.93;;;15.05;65.07
78064;BME280;67429;51.596;-3.264;2023-07-28T02:36:14;98453.88;;;15.86;63.07
78064;BME280;67429;51.596;-3.264;2023-07-28T02:38:40;98453.32;;;16.11;62.58
78064;BME280;67429;51.596;-3.264;2023-07-28T02:41:05;98451.41;;;15.27;64.29
78064;BME280;67429;51.596;-3.264;2023-07-28T02:43:31;98452.40;;;15.63;63.54
78064;BME280;67429;51.596;-3.264;2023-07-28T02:45:57;98457.82;;;14.91;65.10
78064;BME280;67429;51.596;-3.264;2023-07-28T02:48:22;98456.39;;;15.04;64.67
78064;BME280;67429;51.596;-3.264;2023-07-28T02:50:48;98456.40;;;15.41;64.24
78064;BME280;67429;51.596;-3.264;2023-07-28T02:53:13;98454.87;;;15.25;64.73
78064;BME280;67429;51.596;-3.264;2023-07-28T02:55:41;98457.30;;;15.20;64.24
78064;BME280;67429;51.596;-3.264;2023-07-28T02:58:04;98458.74;;;15.60;63.15
78064;BME280;67429;51.596;-3.264;2023-07-28T03:00:29;98459.05;;;15.35;63.65
78064;BME280;67429;51.596;-3.264;2023-07-28T03:02:55;98455.72;;;15.11;64.25
78064;BME280;67429;51.596;-3.264;2023-07-28T03:05:20;98457.56;;;16.06;62.16
78064;BME280;67429;51.596;-3.264;2023-07-28T03:07:47;98455.70;;;16.15;61.82
78064;BME280;67429;51.596;-3.264;2023-07-28T03:10:12;98454.63;;;16.02;62.41
78064;BME280;67429;51.596;-3.264;2023-07-28T03:12:37;98457.94;;;16.27;60.87
78064;BME280;67429;51.596;-3.264;2023-07-28T03:15:03;98457.52;;;15.84;61.02
78064;BME280;67429;51.596;-3.264;2023-07-28T03:17:28;98458.06;;;16.57;60.47
78064;BME280;67429;51.596;-3.264;2023-07-28T03:19:53;98452.95;;;15.80;62.25
78064;BME280;67429;51.596;-3.264;2023-07-28T03:22:19;98459.05;;;16.63;60.69
78064;BME280;67429;51.596;-3.264;2023-07-28T03:24:44;98459.52;;;16.09;60.82
78064;BME280;67429;51.596;-3.264;2023-07-28T03:27:09;98463.80;;;15.40;63.10
78064;BME280;67429;51.596;-3.264;2023-07-28T03:29:35;98463.25;;;15.40;63.52
78064;BME280;67429;51.596;-3.264;2023-07-28T03:32:00;98470.89;;;15.52;65.03
78064;BME280;67429;51.596;-3.264;2023-07-28T03:34:26;98469.97;;;15.27;64.41
78064;BME280;67429;51.596;-3.264;2023-07-28T03:36:52;98474.49;;;15.32;64.80
78064;BME280;67429;51.596;-3.264;2023-07-28T03:39:17;98476.86;;;15.05;65.11
78064;BME280;67429;51.596;-3.264;2023-07-28T03:41:43;98478.40;;;13.82;67.99
78064;BME280;67429;51.596;-3.264;2023-07-28T03:44:08;98479.74;;;14.18;67.51
78064;BME280;67429;51.596;-3.264;2023-07-28T03:46:34;98476.81;;;14.19;68.39
78064;BME280;67429;51.596;-3.264;2023-07-28T03:48:59;98470.01;;;13.70;68.99
78064;BME280;67429;51.596;-3.264;2023-07-28T03:51:25;98469.26;;;13.82;68.20
78064;BME280;67429;51.596;-3.264;2023-07-28T03:53:50;98464.76;;;14.25;67.54
78064;BME280;67429;51.596;-3.264;2023-07-28T03:56:16;98464.90;;;13.52;68.11
78064;BME280;67429;51.596;-3.264;2023-07-28T03:58:41;98465.04;;;14.49;66.50
78064;BME280;67429;51.596;-3.264;2023-07-28T04:01:07;98462.31;;;14.00;66.96
78064;BME280;67429;51.596;-3.264;2023-07-28T04:03:32;98458.51;;;14.51;65.64
78064;BME280;67429;51.596;-3.264;2023-07-28T04:05:58;98464.27;;;15.01;63.77
78064;BME280;67429;51.596;-3.264;2023-07-28T04:08:23;98470.38;;;14.72;63.77
78064;BME280;67429;51.596;-3.264;2023-07-28T04:10:49;98473.75;;;14.76;63.95
78064;BME280;67429;51.596;-3.264;2023-07-28T04:13:14;98476.60;;;14.86;63.42
78064;BME280;67429;51.596;-3.264;2023-07-28T04:15:40;98476.36;;;15.00;62.51
78064;BME280;67429;51.596;-3.264;2023-07-28T04:18:05;98469.30;;;15.12;61.98
78064;BME280;67429;51.596;-3.264;2023-07-28T04:20:31;98466.96;;;15.40;61.49
78064;BME280;67429;51.596;-3.264;2023-07-28T04:22:56;98461.19;;;15.53;61.00
78064;BME280;67429;51.596;-3.264;2023-07-28T04:25:22;98457.78;;;15.51;61.22
78064;BME280;67429;51.596;-3.264;2023-07-28T04:27:47;98460.40;;;15.72;60.33
78064;BME280;67429;51.596;-3.264;2023-07-28T04:30:13;98460.76;;;15.88;59.17
78064;BME280;67429;51.596;-3.264;2023-07-28T04:32:39;98458.26;;;15.60;59.99
78064;BME280;67429;51.596;-3.264;2023-07-28T04:35:05;98460.46;;;15.54;60.58
78064;BME280;67429;51.596;-3.264;2023-07-28T04:37:30;98463.48;;;15.47;60.81
78064;BME280;67429;51.596;-3.264;2023-07-28T04:39:55;98466.01;;;15.56;60.78
78064;BME280;67429;51.596;-3.264;2023-07-28T04:42:21;98462.92;;;15.57;60.47
78064;BME280;67429;51.596;-3.264;2023-07-28T04:44:46;98458.24;;;15.54;61.51
78064;BME280;67429;51.596;-3.264;2023-07-28T04:47:12;98462.34;;;15.67;59.92
78064;BME280;67429;51.596;-3.264;2023-07-28T04:49:37;98466.03;;;16.10;59.62
78064;BME280;67429;51.596;-3.264;2023-07-28T04:52:03;98470.39;;;16.94;58.57
78064;BME280;67429;51.596;-3.264;2023-07-28T04:54:28;98474.64;;;16.24;59.17
78064;BME280;67429;51.596;-3.264;2023-07-28T04:56:53;98475.84;;;16.53;58.43
78064;BME280;67429;51.596;-3.264;2023-07-28T04:59:19;98467.97;;;15.99;59.23
78064;BME280;67429;51.596;-3.264;2023-07-28T05:01:45;98466.05;;;15.45;60.59
78064;BME280;67429;51.596;-3.264;2023-07-28T05:04:10;98465.56;;;16.02;60.61
78064;BME280;67429;51.596;-3.264;2023-07-28T05:06:35;98467.51;;;15.42;61.61
78064;BME280;67429;51.596;-3.264;2023-07-28T05:09:01;98467.41;;;15.56;61.14
78064;BME280;67429;51.596;-3.264;2023-07-28T05:11:26;98468.87;;;15.96;61.28
78064;BME280;67429;51.596;-3.264;2023-07-28T05:13:52;98467.76;;;15.11;62.66
78064;BME280;67429;51.596;-3.264;2023-07-28T05:16:18;98468.65;;;16.04;60.69
78064;BME280;67429;51.596;-3.264;2023-07-28T05:18:43;98468.40;;;16.62;59.17
78064;BME280;67429;51.596;-3.264;2023-07-28T05:21:09;98467.34;;;16.44;60.03
78064;BME280;67429;51.596;-3.264;2023-07-28T05:23:34;98466.38;;;16.22;59.82
78064;BME280;67429;51.596;-3.264;2023-07-28T05:26:00;98467.44;;;16.83;58.78
78064;BME280;67429;51.596;-3.264;2023-07-28T05:28:26;98463.58;;;16.87;58.25
78064;BME280;67429;51.596;-3.264;2023-07-28T05:30:51;98461.14;;;16.54;58.75
78064;BME280;67429;51.596;-3.264;2023-07-28T05:33:17;98460.27;;;15.77;61.09
78064;BME280;67429;51.596;-3.264;2023-07-28T05:35:42;98466.15;;;16.37;59.91
78064;BME280;67429;51.596;-3.264;2023-07-28T05:38:08;98464.61;;;16.32;60.08
78064;BME280;67429;51.596;-3.264;2023-07-28T05:40:33;98465.63;;;15.76;62.06
78064;BME280;67429;51.596;-3.264;2023-07-28T05:42:59;98465.09;;;15.04;63.32
78064;BME280;67429;51.596;-3.264;2023-07-28T05:45:24;98473.71;;;16.05;62.18
78064;BME280;67429;51.596;-3.264;2023-07-28T05:47:50;98485.66;;;14.07;65.78
78064;BME280;67429;51.596;-3.264;2023-07-28T05:50:16;98480.10;;;13.62;67.47
78064;BME280;67429;51.596;-3.264;2023-07-28T05:52:41;98477.53;;;13.56;68.30
78064;BME280;67429;51.596;-3.264;2023-07-28T05:55:07;98475.27;;;13.92;67.23
78064;BME280;67429;51.596;-3.264;2023-07-28T05:57:32;98470.80;;;15.10;64.20
78064;BME280;67429;51.596;-3.264;2023-07-28T05:59:58;98474.70;;;14.85;63.31
78064;BME280;67429;51.596;-3.264;2023-07-28T06:02:23;98468.90;;;15.66;62.05
78064;BME280;67429;51.596;-3.264;2023-07-28T06:04:49;98469.48;;;15.91;60.92
78064;BME280;67429;51.596;-3.264;2023-07-28T06:07:14;98469.47;;;16.10;60.65
78064;BME280;67429;51.596;-3.264;2023-07-28T06:09:40;98466.74;;;15.57;61.07
78064;BME280;67429;51.596;-3.264;2023-07-28T06:12:06;98470.02;;;15.40;61.09
78064;BME280;67429;51.596;-3.264;2023-07-28T06:14:31;98469.30;;;15.81;60.49
78064;BME280;67429;51.596;-3.264;2023-07-28T06:16:57;98473.88;;;15.81;59.83
78064;BME280;67429;51.596;-3.264;2023-07-28T06:19:22;98469.41;;;15.59;60.91
78064;BME280;67429;51.596;-3.264;2023-07-28T06:21:47;98475.35;;;16.32;60.42
78064;BME280;67429;51.596;-3.264;2023-07-28T06:24:13;98477.72;;;15.34;61.56
78064;BME280;67429;51.596;-3.264;2023-07-28T06:26:38;98480.16;;;15.82;61.18
78064;BME280;67429;51.596;-3.264;2023-07-28T06:29:04;98480.98;;;14.81;63.08
78064;BME280;67429;51.596;-3.264;2023-07-28T06:31:29;98477.13;;;14.77;63.40
78064;BME280;67429;51.596;-3.264;2023-07-28T06:33:54;98474.26;;;15.49;61.74
78064;BME280;67429;51.596;-3.264;2023-07-28T06:36:20;98473.37;;;15.91;60.31
78064;BME280;67429;51.596;-3.264;2023-07-28T06:38:46;98468.82;;;15.69;61.70
78064;BME280;67429;51.596;-3.264;2023-07-28T06:41:11;98470.01;;;16.29;59.63
78064;BME280;67429;51.596;-3.264;2023-07-28T06:43:36;98474.35;;;16.78;58.97
78064;BME280;67429;51.596;-3.264;2023-07-28T06:46:02;98477.04;;;16.78;58.67
78064;BME280;67429;51.596;-3.264;2023-07-28T06:48:27;98476.10;;;16.74;58.47
78064;BME280;67429;51.596;-3.264;2023-07-28T06:50:53;98476.46;;;16.75;59.08
78064;BME280;67429;51.596;-3.264;2023-07-28T06:53:18;98476.56;;;17.17;57.78
78064;BME280;67429;51.596;-3.264;2023-07-28T06:55:44;98478.77;;;17.53;57.08
78064;BME280;67429;51.596;-3.264;2023-07-28T06:58:09;98477.27;;;16.95;58.23
78064;BME280;67429;51.596;-3.264;2023-07-28T07:00:35;98482.38;;;16.28;60.04
78064;BME280;67429;51.596;-3.264;2023-07-28T07:03:00;98482.24;;;17.31;57.98
78064;BME280;67429;51.596;-3.264;2023-07-28T07:05:26;98481.72;;;18.02;56.30
78064;BME280;67429;51.596;-3.264;2023-07-28T07:07:51;98483.65;;;18.29;55.44
78064;BME280;67429;51.596;-3.264;2023-07-28T07:10:17;98488.37;;;17.39;58.16
78064;BME280;67429;51.596;-3.264;2023-07-28T07:12:42;98491.17;;;17.61;57.02
78064;BME280;67429;51.596;-3.264;2023-07-28T07:15:08;98490.38;;;18.30;56.27
78064;BME280;67429;51.596;-3.264;2023-07-28T07:17:33;98487.20;;;18.19;56.11
78064;BME280;67429;51.596;-3.264;2023-07-28T07:19:59;98492.24;;;18.47;55.26
78064;BME280;67429;51.596;-3.264;2023-07-28T07:22:24;98496.99;;;18.96;53.59
78064;BME280;67429;51.596;-3.264;2023-07-28T07:24:49;98497.57;;;19.33;52.55
78064;BME280;67429;51.596;-3.264;2023-07-28T07:27:15;98500.73;;;18.58;54.56
78064;BME280;67429;51.596;-3.264;2023-07-28T07:29:40;98502.03;;;19.56;52.67
78064;BME280;67429;51.596;-3.264;2023-07-28T07:32:07;98504.41;;;19.14;52.46
78064;BME280;67429;51.596;-3.264;2023-07-28T07:34:32;98502.37;;;18.55;54.12
78064;BME280;67429;51.596;-3.264;2023-07-28T07:36:57;98496.54;;;18.19;55.68
78064;BME280;67429;51.596;-3.264;2023-07-28T07:39:21;98497.62;;;19.02;54.18
78064;BME280;67429;51.596;-3.264;2023-07-28T07:41:47;98503.35;;;18.68;55.20
78064;BME280;67429;51.596;-3.264;2023-07-28T07:44:13;98505.30;;;18.49;56.10
78064;BME280;67429;51.596;-3.264;2023-07-28T07:46:38;98502.89;;;18.54;55.74
78064;BME280;67429;51.596;-3.264;2023-07-28T07:49:04;98499.67;;;17.58;56.10
78064;BME280;67429;51.596;-3.264;2023-07-28T07:51:29;98501.20;;;18.19;54.63
78064;BME280;67429;51.596;-3.264;2023-07-28T07:53:55;98503.32;;;19.38;53.53
78064;BME280;67429;51.596;-3.264;2023-07-28T07:56:20;98509.69;;;18.99;53.12
78064;BME280;67429;51.596;-3.264;2023-07-28T07:58:46;98511.51;;;18.36;53.87
78064;BME280;67429;51.596;-3.264;2023-07-28T08:01:11;98512.27;;;18.36;53.56
78064;BME280;67429;51.596;-3.264;2023-07-28T08:03:36;98505.19;;;17.61;55.09
78064;BME280;67429;51.596;-3.264;2023-07-28T08:06:02;98512.32;;;17.47;54.24
78064;BME280;67429;51.596;-3.264;2023-07-28T08:08:27;98515.27;;;17.69;54.97
78064;BME280;67429;51.596;-3.264;2023-07-28T08:10:53;98515.91;;;17.79;54.61
78064;BME280;67429;51.596;-3.264;2023-07-28T08:13:18;98514.04;;;17.77;54.39
78064;BME280;67429;51.596;-3.264;2023-07-28T08:15:44;98515.96;;;17.93;55.15
78064;BME280;67429;51.596;-3.264;2023-07-28T08:18:09;98517.97;;;18.64;53.34
78064;BME280;67429;51.596;-3.264;2023-07-28T08:20:34;98523.15;;;18.54;53.07
78064;BME280;67429;51.596;-3.264;2023-07-28T08:23:00;98522.05;;;18.35;53.19
78064;BME280;67429;51.596;-3.264;2023-07-28T08:25:26;98522.40;;;18.67;53.67
78064;BME280;67429;51.596;-3.264;2023-07-28T08:27:51;98529.19;;;18.65;53.02
78064;BME280;67429;51.596;-3.264;2023-07-28T08:30:16;98526.87;;;18.70;53.55
78064;BME280;67429;51.596;-3.264;2023-07-28T08:32:41;98530.45;;;19.72;51.09
78064;BME280;67429;51.596;-3.264;2023-07-28T08:35:07;98528.99;;;20.33;49.15
78064;BME280;67429;51.596;-3.264;2023-07-28T08:37:32;98533.43;;;20.28;50.03
78064;BME280;67429;51.596;-3.264;2023-07-28T08:39:58;98533.07;;;19.26;50.07
78064;BME280;67429;51.596;-3.264;2023-07-28T08:42:23;98539.85;;;19.30;50.65
78064;BME280;67429;51.596;-3.264;2023-07-28T08:44:49;98537.91;;;18.54;52.20
78064;BME280;67429;51.596;-3.264;2023-07-28T08:47:15;98543.54;;;19.61;50.51
78064;BME280;67429;51.596;-3.264;2023-07-28T08:49:40;98544.86;;;20.19;49.61
78064;BME280;67429;51.596;-3.264;2023-07-28T08:52:05;98546.92;;;19.44;49.72
78064;BME280;67429;51.596;-3.264;2023-07-28T08:54:30;98546.57;;;18.77;51.55
78064;BME280;67429;51.596;-3.264;2023-07-28T08:56:57;98553.12;;;19.30;51.68
78064;BME280;67429;51.596;-3.264;2023-07-28T08:59:22;98558.47;;;19.10;51.47
78064;BME280;67429;51.596;-3.264;2023-07-28T09:01:49;98559.65;;;18.36;52.79
78064;BME280;67429;51.596;-3.264;2023-07-28T09:04:12;98555.40;;;18.37;54.37
78064;BME280;67429;51.596;-3.264;2023-07-28T09:06:38;98550.49;;;18.21;55.55
78064;BME280;67429;51.596;-3.264;2023-07-28T09:09:06;98548.67;;;17.59;55.72
78064;BME280;67429;51.596;-3.264;2023-07-28T09:11:30;98550.13;;;17.74;54.78
78064;BME280;67429;51.596;-3.264;2023-07-28T09:13:55;98543.82;;;17.35;55.40
78064;BME280;67429;51.596;-3.264;2023-07-28T09:16:20;98548.22;;;17.51;55.50
78064;BME280;67429;51.596;-3.264;2023-07-28T09:18:45;98551.35;;;18.37;52.88
78064;BME280;67429;51.596;-3.264;2023-07-28T09:21:16;98557.93;;;19.17;51.93
78064;BME280;67429;51.596;-3.264;2023-07-28T09:23:36;98562.64;;;19.53;50.89
78064;BME280;67429;51.596;-3.264;2023-07-28T09:26:01;98557.91;;;19.29;51.22
78064;BME280;67429;51.596;-3.264;2023-07-28T09:28:37;98556.27;;;18.54;53.45
78064;BME280;67429;51.596;-3.264;2023-07-28T09:30:53;98558.24;;;15.94;59.39
78064;BME280;67429;51.596;-3.264;2023-07-28T09:33:29;98561.42;;;16.29;60.23
78064;BME280;67429;51.596;-3.264;2023-07-28T09:35:49;98561.04;;;16.49;61.32
78064;BME280;67429;51.596;-3.264;2023-07-28T09:38:09;98559.36;;;17.44;57.86
78064;BME280;67429;51.596;-3.264;2023-07-28T09:40:34;98559.78;;;18.01;55.89
78064;BME280;67429;51.596;-3.264;2023-07-28T09:43:00;98564.56;;;18.16;54.79
78064;BME280;67429;51.596;-3.264;2023-07-28T09:45:25;98558.33;;;18.07;54.78
78064;BME280;67429;51.596;-3.264;2023-07-28T09:47:52;98561.21;;;18.00;56.62
78064;BME280;67429;51.596;-3.264;2023-07-28T09:50:18;98558.72;;;18.33;55.29
78064;BME280;67429;51.596;-3.264;2023-07-28T09:52:43;98557.35;;;18.25;56.11
78064;BME280;67429;51.596;-3.264;2023-07-28T09:55:08;98566.37;;;19.15;53.65
78064;BME280;67429;51.596;-3.264;2023-07-28T09:57:36;98562.55;;;20.11;50.94
78064;BME280;67429;51.596;-3.264;2023-07-28T09:59:58;98562.18;;;18.78;53.28
78064;BME280;67429;51.596;-3.264;2023-07-28T10:02:23;98561.85;;;19.30;52.76
78064;BME280;67429;51.596;-3.264;2023-07-28T10:04:48;98564.40;;;19.19;53.73
78064;BME280;67429;51.596;-3.264;2023-07-28T10:07:13;98565.69;;;19.31;53.78
78064;BME280;67429;51.596;-3.264;2023-07-28T10:09:39;98557.96;;;18.16;56.95
78064;BME280;67429;51.596;-3.264;2023-07-28T10:12:05;98550.92;;;17.86;58.54
78064;BME280;67429;51.596;-3.264;2023-07-28T10:14:34;98548.79;;;17.47;59.58
78064;BME280;67429;51.596;-3.264;2023-07-28T10:16:56;98546.02;;;18.36;57.97
78064;BME280;67429;51.596;-3.264;2023-07-28T10:19:21;98548.70;;;16.78;62.74
78064;BME280;67429;51.596;-3.264;2023-07-28T10:21:46;98549.27;;;16.95;62.69
78064;BME280;67429;51.596;-3.264;2023-07-28T10:24:12;98545.79;;;16.54;64.02
78064;BME280;67429;51.596;-3.264;2023-07-28T10:26:38;98546.76;;;17.67;61.11
78064;BME280;67429;51.596;-3.264;2023-07-28T10:29:10;98539.47;;;17.58;60.00
78064;BME280;67429;51.596;-3.264;2023-07-28T10:31:30;98538.79;;;16.80;60.97
78064;BME280;67429;51.596;-3.264;2023-07-28T10:33:53;98534.17;;;18.24;57.65
78064;BME280;67429;51.596;-3.264;2023-07-28T10:38:44;98537.85;;;18.47;56.28
78064;BME280;67429;51.596;-3.264;2023-07-28T10:41:13;98536.64;;;18.75;55.31
78064;BME280;67429;51.596;-3.264;2023-07-28T10:43:36;98531.34;;;17.63;56.99
78064;BME280;67429;51.596;-3.264;2023-07-28T10:46:01;98530.12;;;18.40;57.49
78064;BME280;67429;51.596;-3.264;2023-07-28T10:48:26;98530.20;;;17.07;60.73
78064;BME280;67429;51.596;-3.264;2023-07-28T10:50:52;98526.51;;;18.32;58.76
78064;BME280;67429;51.596;-3.264;2023-07-28T10:53:17;98528.68;;;17.60;61.68
78064;BME280;67429;51.596;-3.264;2023-07-28T10:55:42;98526.78;;;17.08;63.13
78064;BME280;67429;51.596;-3.264;2023-07-28T10:58:08;98523.14;;;16.89;64.14
78064;BME280;67429;51.596;-3.264;2023-07-28T11:00:34;98521.15;;;16.72;63.73
78064;BME280;67429;51.596;-3.264;2023-07-28T11:02:59;98514.57;;;17.84;60.17
78064;BME280;67429;51.596;-3.264;2023-07-28T11:05:26;98517.45;;;19.45;55.83
78064;BME280;67429;51.596;-3.264;2023-07-28T11:07:50;98510.41;;;18.12;57.38
78064;BME280;67429;51.596;-3.264;2023-07-28T11:10:15;98516.55;;;18.39;58.12
78064;BME280;67429;51.596;-3.264;2023-07-28T11:12:41;98514.25;;;16.91;61.35
78064;BME280;67429;51.596;-3.264;2023-07-28T11:15:08;98513.30;;;17.13;62.47
78064;BME280;67429;51.596;-3.264;2023-07-28T11:17:31;98509.19;;;17.25;61.60
78064;BME280;67429;51.596;-3.264;2023-07-28T11:19:56;98514.32;;;17.37;59.35
78064;BME280;67429;51.596;-3.264;2023-07-28T11:22:22;98509.25;;;18.09;57.32
78064;BME280;67429;51.596;-3.264;2023-07-28T11:24:51;98509.05;;;19.72;54.25
78064;BME280;67429;51.596;-3.264;2023-07-28T11:27:13;98507.47;;;18.26;56.76
78064;BME280;67429;51.596;-3.264;2023-07-28T11:29:37;98513.20;;;18.41;56.71
78064;BME280;67429;51.596;-3.264;2023-07-28T11:32:04;98514.25;;;18.51;56.58
78064;BME280;67429;51.596;-3.264;2023-07-28T11:34:34;98516.19;;;18.78;55.31
78064;BME280;67429;51.596;-3.264;2023-07-28T11:36:54;98511.64;;;18.12;57.06
78064;BME280;67429;51.596;-3.264;2023-07-28T11:39:20;98513.36;;;17.83;57.73
78064;BME280;67429;51.596;-3.264;2023-07-28T11:41:45;98516.42;;;18.02;57.83
78064;BME280;67429;51.596;-3.264;2023-07-28T11:44:10;98529.27;;;18.92;56.69
78064;BME280;67429;51.596;-3.264;2023-07-28T11:46:37;98527.55;;;18.99;57.27
78064;BME280;67429;51.596;-3.264;2023-07-28T11:49:08;98524.26;;;19.25;57.30
78064;BME280;67429;51.596;-3.264;2023-07-28T11:51:27;98522.70;;;19.19;56.28
78064;BME280;67429;51.596;-3.264;2023-07-28T11:53:52;98520.55;;;20.52;55.17
78064;BME280;67429;51.596;-3.264;2023-07-28T11:56:17;98516.85;;;19.64;56.56
78064;BME280;67429;51.596;-3.264;2023-07-28T11:58:43;98512.57;;;18.75;58.36
78064;BME280;67429;51.596;-3.264;2023-07-28T12:01:08;98512.88;;;18.50;55.19
78064;BME280;67429;51.596;-3.264;2023-07-28T12:03:34;98513.39;;;19.87;53.45
78064;BME280;67429;51.596;-3.264;2023-07-28T12:06:05;98512.62;;;20.07;52.93
78064;BME280;67429;51.596;-3.264;2023-07-28T12:08:34;98515.49;;;18.24;55.76
78064;BME280;67429;51.596;-3.264;2023-07-28T12:10:54;98512.90;;;19.07;53.86
78064;BME280;67429;51.596;-3.264;2023-07-28T12:13:15;98520.70;;;19.49;54.18
78064;BME280;67429;51.596;-3.264;2023-07-28T12:15:41;98521.18;;;18.55;56.93
78064;BME280;67429;51.596;-3.264;2023-07-28T12:18:09;98528.21;;;19.35;55.67
78064;BME280;67429;51.596;-3.264;2023-07-28T12:20:34;98533.69;;;18.73;56.25
78064;BME280;67429;51.596;-3.264;2023-07-28T12:22:57;98533.48;;;19.58;55.71
78064;BME280;67429;51.596;-3.264;2023-07-28T12:25:23;98536.23;;;19.59;54.12
78064;BME280;67429;51.596;-3.264;2023-07-28T12:27:48;98541.26;;;19.62;54.14
78064;BME280;67429;51.596;-3.264;2023-07-28T12:30:13;98545.16;;;21.00;51.95
78064;BME280;67429;51.596;-3.264;2023-07-28T12:32:39;98540.56;;;20.66;50.38
78064;BME280;67429;51.596;-3.264;2023-07-28T12:35:05;98538.76;;;20.99;50.40
78064;BME280;67429;51.596;-3.264;2023-07-28T12:37:30;98546.59;;;20.24;52.48
78064;BME280;67429;51.596;-3.264;2023-07-28T12:39:55;98553.43;;;19.61;55.50
78064;BME280;67429;51.596;-3.264;2023-07-28T12:42:20;98553.40;;;17.52;60.55